KHVS/HVS METAR and TAF weather

Enter ICAO airport designator
Station Type Date Time Source
KHVS METAR 2019/01/21 21:35 UTC NOAA

KHVS 212135Z AUTO 36006KT 10SM CLR 01/M18 A3045 RMK AO2


Station Type Date Time Source
KHVS Decoded METAR 2019/01/21 21:35 UTC NOAA

Station name not available
Jan 21, 2019 - 04:35 PM EST / 2019.01.21 2135 UTC
Wind: from the N (360 degrees) at 7 MPH (6 KT):0
Visibility: 10 mile(s):0
Sky conditions: clear
Temperature: 33 F (1 C)
Windchill: 26 F (-3 C):1
Dew Point: 0 F (-18 C)
Relative Humidity: 22%
Pressure (altimeter): 30.45 in. Hg (1031 hPa)
ob: KHVS 212135Z AUTO 36006KT 10SM CLR 01/M18 A3045 RMK AO2
cycle: 21

Station Type Date Time Source
KHVS TAF UTC NOAA

Error!


Example: see airport list